San Francisco, California
Traffic Map
Current Weather Conditions
San Francisco, California
Overcast
Overcast
62°
Feels Like: 62°
Wind Chill: 62° Ceiling: 700
Heat Index: 62° Visibility: 10mi
Dew Point: 60° Wind: 23mph
Humidity: 93% Direction: 280° (W)
Pressure: 30.27in Gusts: 29mph
Raw Report DataKSFO 212356Z 28020G25KT 10SM SCT004 BKN007 BKN011 OVC180 17/16 A3027 RMK AO2 SLP248 60000 T01670156 10172 20161 56004
Traffic Incident Summary
Active as of:
Severity:
Category:
InformationThere was an issue retrieving the traffic information for this location. Please try a different location or try again shortly.
Advertisements
Track Severe Weather on mobile